Chem Houston — D5FT8 — position and weather

sailwx.info

Track history (hours):
 
Tides and Currents Weather Stations Pressure Air Temp Water Temp Dewpoint Dewpoint Depression Visibility Wind Speed Wind Dir Waves Ship Positions

Chem Houston

Last reported at 2017-Sep-11 18:46 UTC. Time now 2017-Sep-25 11:25 UTC.
Position N 29°20' W 094°46'.
Warning: this ship's position is 13 days out of date.

Length 145 m; draft 6.1 m.

Type: Tanker. MMSI: 636016360.

Date/timePositionNaut miles runAvg speedWind from/ knotsBaromVisibWave heightAir tempDewpointWater temp
2017-Sep-11 18:46N 29°20' W 094°46'1215.2
2017-Sep-11 18:00N 29°31' W 094°53'713.9
2017-Sep-11 17:30N 29°36' W 094°57'612.2
2017-Sep-11 16:59N 29°42' W 095°00'4 8.4
2017-Sep-11 16:30N 29°45' W 095°04'2 3.4
2017-Sep-11 15:59N 29°45' W 095°06'0 0.0
2017-Sep-11 02:23N 29°45' W 095°06'0 0.6
2017-Sep-11 02:00N 29°45' W 095°06'2 3.9
2017-Sep-11 01:30N 29°45' W 095°04'4 7.2
2017-Sep-11 01:00N 29°42' W 095°01'510.4
2017-Sep-11 00:30N 29°38' W 094°58'713.6
2017-Sep-11 00:00N 29°32' W 094°54'713.7
2017-Sep-10 23:30N 29°26' W 094°50'712.9
2017-Sep-10 22:58N 29°21' W 094°45'0 0.2
2017-Sep-10 20:15N 29°21' W 094°44'1113.1
2017-Sep-10 19:23N 29°30' W 094°52'513.8
2017-Sep-10 19:01N 29°34' W 094°55'713.2
2017-Sep-10 18:31N 29°40' W 094°58'6 9.5
2017-Sep-10 17:54N 29°44' W 095°03'3 6.5
2017-Sep-10 17:30N 29°45' W 095°06'3 5.9
2017-Sep-10 17:01N 29°44' W 095°09'4 5.0
2017-Sep-10 16:13N 29°44' W 095°14'1 3.2
2017-Sep-10 15:57N 29°43' W 095°14'1 1.5
2017-Sep-10 15:30N 29°43' W 095°15'1 0.0
2017-Sep-09 03:36N 29°44' W 095°16'0 0.9
2017-Sep-09 03:15N 29°44' W 095°15'1 3.7
2017-Sep-09 03:01N 29°43' W 095°14'3 5.0
2017-Sep-09 02:26N 29°45' W 095°12'2 5.4
2017-Sep-09 02:00N 29°44' W 095°09'3 5.5
2017-Sep-09 01:30N 29°45' W 095°06'3 5.3
2017-Sep-09 00:59N 29°44' W 095°03'3 6.9
2017-Sep-09 00:30N 29°42' W 095°00'611.8
2017-Sep-09 00:00N 29°37' W 094°57'713.8
2017-Sep-08 23:30N 29°31' W 094°53'714.2
2017-Sep-08 23:00N 29°24' W 094°49'  
2017-Sep-04 22:25N 29°21' W 094°45'410.2
2017-Sep-04 22:00N 29°22' W 094°50'3 0.1
2017-Sep-03 20:56N 29°23' W 094°53'4 9.9
2017-Sep-03 20:30N 29°21' W 094°48'4 0.2
2017-Sep-02 22:14N 29°21' W 094°43'313.2
2017-Sep-02 22:00N 29°21' W 094°47'1012.2
2017-Sep-02 21:11N 29°30' W 094°52'211.7
2017-Sep-02 21:00N 29°31' W 094°53'611.2
2017-Sep-02 20:30N 29°36' W 094°57'4 7.7
2017-Sep-02 20:00N 29°37' W 095°01'0 0.6
2017-Sep-02 19:30N 29°37' W 095°01'0 0.0
2017-Sep-02 18:50N 29°37' W 095°01'0 0.0
2017-Sep-02 18:26N 29°37' W 095°01'0 0.0
2017-Sep-02 17:32N 29°37' W 095°01'0 0.0
2017-Sep-02 17:29N 29°37' W 095°01'0 0.0
2017-Sep-02 16:44N 29°37' W 095°01'0 0.0
2017-Sep-02 16:26N 29°37' W 095°01'0 0.0
2017-Sep-02 15:41N 29°37' W 095°01'0 0.0
2017-Sep-02 15:29N 29°37' W 095°01'0 0.0
2017-Sep-02 14:56N 29°37' W 095°01'0 0.0
2017-Sep-02 14:29N 29°37' W 095°01'0 0.0
2017-Sep-02 13:50N 29°37' W 095°01'0 0.0
2017-Sep-02 13:02N 29°37' W 095°01'0 0.0
2017-Sep-02 12:59N 29°37' W 095°01'0 0.0
2017-Sep-02 12:23N 29°37' W 095°01'0 0.0
2017-Sep-02 11:59N 29°37' W 095°01'0 0.0
2017-Sep-02 11:17N 29°37' W 095°01'0 0.0
2017-Sep-02 10:59N 29°37' W 095°01'0 0.0
2017-Sep-02 10:29N 29°37' W 095°01'0 0.0
2017-Sep-02 09:59N 29°37' W 095°01'0 0.0
2017-Sep-02 09:29N 29°37' W 095°01'0 0.0
2017-Sep-02 08:59N 29°37' W 095°01'0 0.0
2017-Sep-02 08:23N 29°37' W 095°01'0 0.0
2017-Sep-02 07:56N 29°37' W 095°01'0 0.0
2017-Sep-02 07:23N 29°37' W 095°01'0 0.0
2017-Sep-02 06:59N 29°37' W 095°01'0 0.0
2017-Sep-02 06:29N 29°37' W 095°01'0 0.0
2017-Sep-02 05:59N 29°37' W 095°01'0 0.0
2017-Sep-02 05:29N 29°37' W 095°01'0 0.0
2017-Sep-02 04:59N 29°37' W 095°01'0 0.0
2017-Sep-02 04:23N 29°37' W 095°01'0 0.0
2017-Sep-02 03:56N 29°37' W 095°01'0 0.0
2017-Sep-02 03:26N 29°37' W 095°01'0 0.0
2017-Sep-02 02:53N 29°37' W 095°01'0 0.0
2017-Sep-02 02:29N 29°37' W 095°01'0 0.0
2017-Sep-02 01:53N 29°37' W 095°01'0 0.0
2017-Sep-02 00:32N 29°37' W 095°01'0 0.0
2017-Sep-02 00:29N 29°37' W 095°01'0 0.0
2017-Sep-01 23:53N 29°37' W 095°01'0 0.0
2017-Sep-01 23:29N 29°37' W 095°01'0 0.0
2017-Sep-01 22:56N 29°37' W 095°01'0 0.0
2017-Sep-01 22:29N 29°37' W 095°01'0 0.8
2017-Sep-01 22:00N 29°37' W 095°01'4 7.9
2017-Sep-01 21:29N 29°36' W 094°56'612.0
2017-Sep-01 21:00N 29°31' W 094°53'612.0
2017-Sep-01 20:30N 29°25' W 094°50'510.7
2017-Sep-01 20:00N 29°21' W 094°47'  
Track history (hours):
 
Tides and Currents Weather Stations Pressure Air Temp Water Temp Dewpoint Dewpoint Depression Visibility Wind Speed Wind Dir Waves Ship Positions

Chem Houston

Last reported at 2017-Sep-11 18:46 UTC. Time now 2017-Sep-25 11:25 UTC.
Position N 29°20' W 094°46'.
Warning: this ship's position is 13 days out of date.

Length 145 m; draft 6.1 m.

Type: Tanker. MMSI: 636016360.

Date/timePositionNaut miles runAvg speedWind from/ knotsBaromVisibWave heightAir tempDewpointWater temp
2017-Sep-11 18:46N 29°20' W 094°46'1215.2
2017-Sep-11 18:00N 29°31' W 094°53'713.9
2017-Sep-11 17:30N 29°36' W 094°57'612.2
2017-Sep-11 16:59N 29°42' W 095°00'4 8.4
2017-Sep-11 16:30N 29°45' W 095°04'2 3.4
2017-Sep-11 15:59N 29°45' W 095°06'0 0.0
2017-Sep-11 02:23N 29°45' W 095°06'0 0.6
2017-Sep-11 02:00N 29°45' W 095°06'2 3.9
2017-Sep-11 01:30N 29°45' W 095°04'4 7.2
2017-Sep-11 01:00N 29°42' W 095°01'510.4
2017-Sep-11 00:30N 29°38' W 094°58'713.6
2017-Sep-11 00:00N 29°32' W 094°54'713.7
2017-Sep-10 23:30N 29°26' W 094°50'712.9
2017-Sep-10 22:58N 29°21' W 094°45'0 0.2
2017-Sep-10 20:15N 29°21' W 094°44'1113.1
2017-Sep-10 19:23N 29°30' W 094°52'513.8
2017-Sep-10 19:01N 29°34' W 094°55'713.2
2017-Sep-10 18:31N 29°40' W 094°58'6 9.5
2017-Sep-10 17:54N 29°44' W 095°03'3 6.5
2017-Sep-10 17:30N 29°45' W 095°06'3 5.9
2017-Sep-10 17:01N 29°44' W 095°09'4 5.0
2017-Sep-10 16:13N 29°44' W 095°14'1 3.2
2017-Sep-10 15:57N 29°43' W 095°14'1 1.5
2017-Sep-10 15:30N 29°43' W 095°15'1 0.0
2017-Sep-09 03:36N 29°44' W 095°16'0 0.9
2017-Sep-09 03:15N 29°44' W 095°15'1 3.7
2017-Sep-09 03:01N 29°43' W 095°14'3 5.0
2017-Sep-09 02:26N 29°45' W 095°12'2 5.4
2017-Sep-09 02:00N 29°44' W 095°09'3 5.5
2017-Sep-09 01:30N 29°45' W 095°06'3 5.3
2017-Sep-09 00:59N 29°44' W 095°03'3 6.9
2017-Sep-09 00:30N 29°42' W 095°00'611.8
2017-Sep-09 00:00N 29°37' W 094°57'713.8
2017-Sep-08 23:30N 29°31' W 094°53'714.2
2017-Sep-08 23:00N 29°24' W 094°49'  
2017-Sep-04 22:25N 29°21' W 094°45'410.2
2017-Sep-04 22:00N 29°22' W 094°50'3 0.1
2017-Sep-03 20:56N 29°23' W 094°53'4 9.9
2017-Sep-03 20:30N 29°21' W 094°48'4 0.2
2017-Sep-02 22:14N 29°21' W 094°43'313.2
2017-Sep-02 22:00N 29°21' W 094°47'1012.2
2017-Sep-02 21:11N 29°30' W 094°52'211.7
2017-Sep-02 21:00N 29°31' W 094°53'611.2
2017-Sep-02 20:30N 29°36' W 094°57'4 7.7
2017-Sep-02 20:00N 29°37' W 095°01'0 0.6
2017-Sep-02 19:30N 29°37' W 095°01'0 0.0
2017-Sep-02 18:50N 29°37' W 095°01'0 0.0
2017-Sep-02 18:26N 29°37' W 095°01'0 0.0
2017-Sep-02 17:32N 29°37' W 095°01'0 0.0
2017-Sep-02 17:29N 29°37' W 095°01'0 0.0
2017-Sep-02 16:44N 29°37' W 095°01'0 0.0
2017-Sep-02 16:26N 29°37' W 095°01'0 0.0
2017-Sep-02 15:41N 29°37' W 095°01'0 0.0
2017-Sep-02 15:29N 29°37' W 095°01'0 0.0
2017-Sep-02 14:56N 29°37' W 095°01'0 0.0
2017-Sep-02 14:29N 29°37' W 095°01'0 0.0
2017-Sep-02 13:50N 29°37' W 095°01'0 0.0
2017-Sep-02 13:02N 29°37' W 095°01'0 0.0
2017-Sep-02 12:59N 29°37' W 095°01'0 0.0
2017-Sep-02 12:23N 29°37' W 095°01'0 0.0
2017-Sep-02 11:59N 29°37' W 095°01'0 0.0
2017-Sep-02 11:17N 29°37' W 095°01'0 0.0
2017-Sep-02 10:59N 29°37' W 095°01'0 0.0
2017-Sep-02 10:29N 29°37' W 095°01'0 0.0
2017-Sep-02 09:59N 29°37' W 095°01'0 0.0
2017-Sep-02 09:29N 29°37' W 095°01'0 0.0
2017-Sep-02 08:59N 29°37' W 095°01'0 0.0
2017-Sep-02 08:23N 29°37' W 095°01'0 0.0
2017-Sep-02 07:56N 29°37' W 095°01'0 0.0
2017-Sep-02 07:23N 29°37' W 095°01'0 0.0
2017-Sep-02 06:59N 29°37' W 095°01'0 0.0
2017-Sep-02 06:29N 29°37' W 095°01'0 0.0
2017-Sep-02 05:59N 29°37' W 095°01'0 0.0
2017-Sep-02 05:29N 29°37' W 095°01'0 0.0
2017-Sep-02 04:59N 29°37' W 095°01'0 0.0
2017-Sep-02 04:23N 29°37' W 095°01'0 0.0
2017-Sep-02 03:56N 29°37' W 095°01'0 0.0
2017-Sep-02 03:26N 29°37' W 095°01'0 0.0
2017-Sep-02 02:53N 29°37' W 095°01'0 0.0
2017-Sep-02 02:29N 29°37' W 095°01'0 0.0
2017-Sep-02 01:53N 29°37' W 095°01'0 0.0
2017-Sep-02 00:32N 29°37' W 095°01'0 0.0
2017-Sep-02 00:29N 29°37' W 095°01'0 0.0
2017-Sep-01 23:53N 29°37' W 095°01'0 0.0
2017-Sep-01 23:29N 29°37' W 095°01'0 0.0
2017-Sep-01 22:56N 29°37' W 095°01'0 0.0
2017-Sep-01 22:29N 29°37' W 095°01'0 0.8
2017-Sep-01 22:00N 29°37' W 095°01'4 7.9
2017-Sep-01 21:29N 29°36' W 094°56'612.0
2017-Sep-01 21:00N 29°31' W 094°53'612.0
2017-Sep-01 20:30N 29°25' W 094°50'510.7
2017-Sep-01 20:00N 29°21' W 094°47'  

Dump ship's entire track history